Terminal Aerodrome Forecast
Issued by NWS

Home | Current Version | Previous Version | Text Only | Print | Product List | Glossary On
Versions: 1 2 3 4 5 6 7 8 9 10 11 12 13
000
FTUS46 KHNX 010525
TAFBFL
TAF
KBFL 010525Z 0106/0206 34006KT P6SM SCT200
     FM010900 VRB04KT P6SM FEW130 BKN200
     FM012100 30011KT P6SM SCT120 BKN200
     FM020400 35006KT P6SM SCT200=

USA.gov is the U.S. government's official web portal to all federal, state and local government web resources and services.